EST,Max TemperatureF,Mean TemperatureF,Min TemperatureF,Max Dew PointF,MeanDew PointF,Min DewpointF,Max Humidity, Mean Humidity, Min Humidity, Max Sea Level PressureIn, Mean Sea Level PressureIn, Min Sea Level PressureIn, Max VisibilityMiles, Mean VisibilityMiles, Min VisibilityMiles, Max Wind SpeedMPH, Mean Wind SpeedMPH, Max Gust SpeedMPH,PrecipitationIn, CloudCover, Events, WindDirDegrees
2011-11-1,66,56,46,48,40,34,88,60,30,30.29,30.23,30.16,10,10,9,17,10,23,0.00,0,,2
2011-11-2,64,56,48,48,45,41,87,67,52,30.39,30.33,30.29,10,10,10,15,7,18,0.09,0,,33
2011-11-3,71,60,48,61,52,45,94,77,60,30.28,30.15,29.94,10,10,6,8,3,,0.00,0,,70
2011-11-4,69,60,51,64,53,43,100,80,67,29.97,29.81,29.75,10,9,2,21,14,33,0.09,7,Rain,287
2011-11-5,62,55,48,46,41,36,72,58,45,30.30,30.17,29.97,10,10,10,21,15,29,0.00,4,,15
2011-11-6,69,60,50,54,47,41,76,67,53,30.39,30.33,30.28,10,10,9,16,12,22,0.00,6,,13
2011-11-7,75,64,53,57,54,50,94,74,44,30.34,30.29,30.24,10,10,9,16,8,22,0.00,1,,29
2011-11-8,73,64,55,57,55,52,94,74,50,30.25,30.20,30.16,10,10,8,17,7,22,0.00,0,,38
2011-11-9,77,64,51,57,54,48,94,76,47,30.14,30.06,29.98,10,9,8,9,5,,0.00,0,,5
2011-11-10,77,62,48,59,52,46,93,70,44,29.96,29.89,29.80,10,10,8,14,4,21,0.00,1,,294
2011-11-11,60,50,39,36,29,21,75,46,22,30.21,30.11,29.97,10,10,10,15,9,23,0.00,0,,316
2011-11-12,64,48,32,46,34,28,100,65,27,30.37,30.31,30.26,10,10,8,8,1,,0.00,0,,154
2011-11-13,73,58,42,55,49,37,94,77,47,30.31,30.26,30.20,10,10,9,12,1,,0.00,1,,195
2011-11-14,77,64,50,61,55,46,100,77,50,30.22,30.16,30.09,10,10,3,14,2,21,0.00,0,,210
2011-11-15,78,71,64,70,67,63,100,87,74,30.11,30.05,30.00,10,7,0,12,6,17,0.00,5,Fog,206
2011-11-16,73,68,64,70,67,64,100,94,83,30.01,29.96,29.88,8,3,0,15,8,22,0.00,7,Fog,205
2011-11-17,77,65,53,68,59,46,94,75,47,30.27,29.97,29.85,10,8,2,20,12,30,0.31,4,Rain-Thunderstorm,267
2011-11-18,55,48,42,37,30,21,71,50,33,30.49,30.42,30.32,10,10,10,18,12,24,0.00,0,,35
2011-11-19,69,56,44,61,51,36,88,81,68,30.40,30.35,30.31,10,9,7,17,8,18,0.00,3,,29
2011-11-20,77,65,53,63,58,52,100,82,57,30.36,30.32,30.29,10,7,2,8,2,,0.00,1,,103
2011-11-21,78,68,57,64,61,55,100,84,57,30.32,30.25,30.18,10,7,0,13,3,,0.00,3,Fog,228
2011-11-22,77,67,57,66,62,55,100,84,65,30.24,30.16,30.07,10,9,1,13,3,,0.00,0,,174
2011-11-23,75,68,60,66,60,43,94,76,47,30.09,29.96,29.88,10,9,2,17,12,26,0.44,4,Rain-Thunderstorm,252
2011-11-24,64,54,44,41,35,32,87,49,30,30.36,30.28,30.15,10,10,9,17,10,25,0.00,0,,10
2011-11-25,69,53,37,50,42,36,93,73,33,30.41,30.35,30.29,10,9,1,8,3,,0.00,0,,354
2011-11-26,71,60,48,57,52,45,94,74,46,30.37,30.31,30.26,10,10,1,16,5,,0.00,4,,56
2011-11-27,77,72,66,63,59,55,88,68,50,30.22,30.15,30.03,10,9,2,15,7,26,0.00,6,,139
2011-11-28,77,66,55,66,63,54,100,79,60,30.03,29.92,29.83,10,7,1,21,10,31,0.42,6,Rain,151
2011-11-29,59,52,42,48,42,36,100,74,51,29.99,29.93,29.88,10,9,2,17,6,26,0.07,5,Rain,246
2011-11-30,57,48,39,41,36,36,87,67,44,30.06,30.01,29.97,10,10,10,13,6,,0.00,0,,279